createdAt,value
2023-02-04T00:00:26.435Z,46.64
2023-02-04T00:03:12.687Z,46.85
2023-02-04T00:05:58.918Z,47.03
2023-02-04T00:08:44.914Z,46.92
2023-02-04T00:11:30.772Z,47.59
2023-02-04T00:14:16.808Z,47.62
2023-02-04T00:17:02.589Z,47.46
2023-02-04T00:19:48.727Z,47.63
2023-02-04T00:22:35.668Z,47.45
2023-02-04T00:25:21.431Z,47.54
2023-02-04T00:28:07.558Z,47.85
2023-02-04T00:30:53.240Z,47.59
2023-02-04T00:33:39.077Z,47.46
2023-02-04T00:36:25.122Z,47.82
2023-02-04T00:39:13.649Z,48.17
2023-02-04T00:41:59.841Z,47.89
2023-02-04T00:44:48.111Z,48.42
2023-02-04T00:47:34.340Z,48.37
2023-02-04T00:50:20.206Z,48.63
2023-02-04T00:53:07.270Z,48.61
2023-02-04T00:55:53.027Z,48.63
2023-02-04T00:58:43.312Z,48.70
2023-02-04T01:01:29.520Z,48.68
2023-02-04T01:04:15.454Z,48.95
2023-02-04T01:07:03.039Z,48.90
2023-02-04T01:09:48.868Z,48.75
2023-02-04T01:12:34.492Z,48.97
2023-02-04T01:15:20.703Z,48.99
2023-02-04T01:18:06.557Z,48.73
2023-02-04T01:20:52.266Z,48.99
2023-02-04T01:23:38.182Z,48.96
2023-02-04T01:26:24.633Z,49.54
2023-02-04T01:29:10.742Z,49.11
2023-02-04T01:31:56.807Z,49.58
2023-02-04T01:34:42.587Z,49.61
2023-02-04T01:37:28.483Z,50.05
2023-02-04T01:40:14.500Z,49.65
2023-02-04T01:43:02.620Z,49.71
2023-02-04T01:45:50.213Z,49.69
2023-02-04T01:48:36.071Z,49.90
2023-02-04T01:51:28.047Z,49.70
2023-02-04T01:54:14.788Z,49.84
2023-02-04T01:57:00.892Z,49.95
2023-02-04T01:59:47.927Z,49.80
2023-02-04T02:02:46.090Z,50.32
2023-02-04T02:05:36.919Z,50.46
2023-02-04T02:08:22.778Z,50.17
2023-02-04T02:11:08.597Z,50.04
2023-02-04T02:13:54.689Z,50.47
2023-02-04T02:16:40.930Z,50.32
2023-02-04T02:19:30.462Z,50.13
2023-02-04T02:22:42.715Z,50.77
2023-02-04T02:25:29.829Z,50.51
2023-02-04T02:28:19.002Z,50.39
2023-02-04T02:31:05.361Z,50.66
2023-02-04T02:33:51.429Z,50.51
2023-02-04T02:36:37.248Z,50.87
2023-02-04T02:39:23.448Z,51.24
2023-02-04T02:42:11.486Z,50.80
2023-02-04T02:44:58.279Z,51.14
2023-02-04T02:47:43.949Z,50.70
2023-02-04T02:50:31.585Z,51.09
2023-02-04T02:53:20.179Z,51.03
2023-02-04T02:56:07.935Z,50.92
2023-02-04T02:58:53.953Z,50.98
2023-02-04T03:01:39.567Z,51.38
2023-02-04T03:04:27.534Z,51.52
2023-02-04T03:07:14.304Z,51.50
2023-02-04T03:10:00.627Z,51.47
2023-02-04T03:12:47.507Z,51.41
2023-02-04T03:15:33.883Z,51.65
2023-02-04T03:18:21.182Z,51.42
2023-02-04T03:21:07.593Z,52.00
2023-02-04T03:23:56.684Z,51.46
2023-02-04T03:26:42.813Z,51.71
2023-02-04T03:29:30.531Z,51.86
2023-02-04T03:32:16.728Z,51.59
2023-02-04T03:35:02.507Z,51.60
2023-02-04T03:37:48.232Z,51.71
2023-02-04T03:40:33.877Z,51.79
2023-02-04T03:43:19.782Z,51.70
2023-02-04T03:46:05.767Z,52.45
2023-02-04T03:48:51.889Z,52.10
2023-02-04T03:51:37.375Z,52.21
2023-02-04T03:54:24.617Z,52.25
2023-02-04T03:57:10.780Z,52.56
2023-02-04T03:59:56.707Z,52.46
2023-02-04T04:02:42.477Z,52.19
2023-02-04T04:05:28.830Z,52.87
2023-02-04T04:08:14.825Z,52.58
2023-02-04T04:11:00.868Z,52.77
2023-02-04T04:13:46.622Z,52.57
2023-02-04T04:16:32.514Z,52.66
2023-02-04T04:19:18.515Z,53.04
2023-02-04T04:22:04.250Z,53.20
2023-02-04T04:24:50.149Z,52.95
2023-02-04T04:27:35.980Z,53.00
2023-02-04T04:30:22.074Z,52.82
2023-02-04T04:33:07.736Z,53.08
2023-02-04T04:35:53.498Z,53.26
2023-02-04T04:38:39.334Z,52.74
2023-02-04T04:41:24.965Z,53.08
2023-02-04T04:44:10.728Z,52.88
2023-02-04T04:46:56.496Z,53.23
2023-02-04T04:49:42.515Z,52.94
2023-02-04T04:52:28.243Z,52.86
2023-02-04T04:55:14.046Z,53.00
2023-02-04T04:58:00.107Z,53.13
2023-02-04T05:00:45.880Z,53.27
2023-02-04T05:03:31.523Z,53.20
2023-02-04T05:06:17.173Z,53.45
2023-02-04T05:09:03.092Z,53.43
2023-02-04T05:11:48.729Z,53.15
2023-02-04T05:14:34.656Z,53.35
2023-02-04T05:17:20.380Z,53.77
2023-02-04T05:20:06.644Z,53.57
2023-02-04T05:22:52.542Z,53.60
2023-02-04T05:25:38.298Z,53.74
2023-02-04T05:28:24.071Z,53.43
2023-02-04T05:31:09.994Z,53.67
2023-02-04T05:33:56.391Z,53.81
2023-02-04T05:36:42.547Z,53.99
2023-02-04T05:39:28.294Z,53.88
2023-02-04T05:42:15.484Z,53.67
2023-02-04T05:45:01.240Z,53.58
2023-02-04T05:47:47.459Z,54.01
2023-02-04T05:50:33.444Z,53.61
2023-02-04T05:53:37.715Z,53.73
2023-02-04T05:56:25.333Z,53.78
2023-02-04T05:59:11.046Z,53.76
2023-02-04T06:01:56.706Z,53.87
2023-02-04T06:04:44.708Z,53.76
2023-02-04T06:07:30.512Z,54.11
2023-02-04T06:10:16.730Z,54.35
2023-02-04T06:13:02.449Z,53.85
2023-02-04T06:15:48.410Z,54.30
2023-02-04T06:18:34.133Z,54.45
2023-02-04T06:21:21.231Z,54.43
2023-02-04T06:24:07.038Z,54.18
2023-02-04T06:26:52.714Z,54.47
2023-02-04T06:29:38.349Z,54.16
2023-02-04T06:32:26.352Z,54.10
2023-02-04T06:35:13.289Z,53.88
2023-02-04T06:37:59.358Z,53.98
2023-02-04T06:40:45.255Z,54.31
2023-02-04T06:43:31.258Z,54.33
2023-02-04T06:46:17.027Z,54.22
2023-02-04T06:49:02.898Z,54.64
2023-02-04T06:51:49.439Z,54.74
2023-02-04T06:54:35.624Z,54.60
2023-02-04T06:57:21.224Z,54.71
2023-02-04T07:00:09.007Z,54.87
2023-02-04T07:02:54.826Z,54.74
2023-02-04T07:05:41.496Z,54.64
2023-02-04T07:08:27.188Z,54.88
2023-02-04T07:11:13.137Z,54.79
2023-02-04T07:13:58.744Z,54.96
2023-02-04T07:16:44.846Z,54.62
2023-02-04T07:19:30.855Z,54.81
2023-02-04T07:22:18.734Z,54.82
2023-02-04T07:25:04.830Z,55.04
2023-02-04T07:27:51.000Z,55.05
2023-02-04T07:30:36.731Z,55.34
2023-02-04T07:33:22.918Z,54.74
2023-02-04T07:36:08.601Z,54.94
2023-02-04T07:38:54.305Z,54.97
2023-02-04T07:41:40.009Z,54.87
2023-02-04T07:44:25.778Z,55.34
2023-02-04T07:47:12.594Z,55.11
2023-02-04T07:49:58.827Z,55.21
2023-02-04T07:52:44.514Z,55.35
2023-02-04T07:55:30.342Z,55.16
2023-02-04T07:58:15.968Z,55.16
2023-02-04T08:01:01.786Z,55.39
2023-02-04T08:03:48.546Z,54.85
2023-02-04T08:06:34.303Z,55.27
2023-02-04T08:09:20.091Z,55.21
2023-02-04T08:12:05.946Z,55.27
2023-02-04T08:14:51.875Z,54.79
2023-02-04T08:17:37.699Z,55.20
2023-02-04T08:20:23.521Z,54.87
2023-02-04T08:23:09.432Z,54.77
2023-02-04T08:25:55.252Z,54.80
2023-02-04T08:28:41.282Z,54.74
2023-02-04T08:31:27.349Z,54.74
2023-02-04T08:34:13.700Z,54.38
2023-02-04T08:36:59.634Z,54.62
2023-02-04T08:39:46.349Z,54.41
2023-02-04T08:42:34.905Z,54.50
2023-02-04T08:45:21.327Z,54.65
2023-02-04T08:48:09.541Z,54.35
2023-02-04T08:50:55.465Z,54.74
2023-02-04T08:53:41.351Z,54.57
2023-02-04T08:56:27.097Z,54.71
2023-02-04T08:59:12.845Z,54.39
2023-02-04T09:01:58.835Z,54.30
2023-02-04T09:04:45.021Z,54.48
2023-02-04T09:07:30.759Z,54.50
2023-02-04T09:10:16.536Z,53.81
2023-02-04T09:13:02.528Z,54.36
2023-02-04T09:15:48.107Z,54.32
2023-02-04T09:18:35.836Z,53.93
2023-02-04T09:21:21.998Z,54.27
2023-02-04T09:24:08.228Z,54.30
2023-02-04T09:26:54.323Z,54.29
2023-02-04T09:29:40.338Z,54.44
2023-02-04T09:32:26.251Z,55.34
2023-02-04T09:35:12.412Z,54.91
2023-02-04T09:37:58.151Z,54.80
2023-02-04T09:40:51.275Z,54.43
2023-02-04T09:43:40.836Z,54.03
2023-02-04T09:46:31.274Z,53.63
2023-02-04T09:49:17.458Z,54.11
2023-02-04T09:52:03.479Z,54.44
2023-02-04T09:54:50.635Z,54.33
2023-02-04T09:57:36.673Z,54.32
2023-02-04T10:00:25.962Z,53.96
2023-02-04T10:03:17.152Z,53.91
2023-02-04T10:06:03.226Z,54.27
2023-02-04T10:08:51.049Z,54.11
2023-02-04T10:11:38.999Z,54.03
2023-02-04T10:14:24.938Z,53.78
2023-02-04T10:17:11.775Z,54.16
2023-02-04T10:19:57.953Z,54.15
2023-02-04T10:22:44.258Z,54.35
2023-02-04T10:25:30.306Z,54.69
2023-02-04T10:28:16.043Z,53.97
2023-02-04T10:31:02.279Z,53.08
2023-02-04T10:33:48.409Z,53.44
2023-02-04T10:36:34.456Z,52.98
2023-02-04T10:39:26.088Z,52.43
2023-02-04T10:42:23.937Z,51.97
2023-02-04T10:45:22.695Z,52.79
2023-02-04T10:48:18.837Z,53.35
2023-02-04T10:51:04.515Z,53.11
2023-02-04T10:54:10.346Z,52.43
2023-02-04T10:57:05.276Z,52.75
2023-02-04T10:59:53.612Z,52.57
2023-02-04T11:02:39.655Z,51.70
2023-02-04T11:05:30.761Z,51.99
2023-02-04T11:08:22.792Z,52.00
2023-02-04T11:11:20.618Z,50.09
2023-02-04T11:14:18.058Z,50.75
2023-02-04T11:17:03.987Z,51.17
2023-02-04T11:19:50.399Z,51.31
2023-02-04T11:22:45.366Z,50.46
2023-02-04T11:25:35.361Z,50.62
2023-02-04T11:28:26.571Z,50.33
2023-02-04T11:31:35.360Z,47.89
2023-02-04T11:34:21.779Z,49.19
2023-02-04T11:37:19.526Z,46.96
2023-02-04T11:40:31.865Z,46.64
2023-02-04T11:43:20.209Z,48.94
2023-02-04T11:46:16.510Z,46.74
2023-02-04T11:49:02.459Z,48.58
2023-02-04T11:51:48.445Z,48.69
2023-02-04T11:54:35.204Z,48.45
2023-02-04T11:57:21.065Z,48.30
2023-02-04T12:00:14.627Z,46.77
2023-02-04T12:03:07.943Z,44.60
2023-02-04T12:05:56.967Z,47.41
2023-02-04T12:08:42.997Z,47.37
2023-02-04T12:11:32.760Z,47.51
2023-02-04T12:14:19.372Z,47.31
2023-02-04T12:17:19.506Z,48.56
2023-02-04T12:20:05.974Z,48.97
2023-02-04T12:22:51.854Z,50.32
2023-02-04T12:25:37.521Z,50.60
2023-02-04T12:28:24.215Z,50.86
2023-02-04T12:31:10.206Z,51.14
2023-02-04T12:33:56.850Z,51.83
2023-02-04T12:36:43.854Z,51.91
2023-02-04T12:39:32.127Z,52.04
2023-02-04T12:42:17.803Z,52.42
2023-02-04T12:45:03.984Z,52.42
2023-02-04T12:47:49.751Z,51.91
2023-02-04T12:50:36.010Z,51.83
2023-02-04T12:53:22.372Z,51.71
2023-02-04T12:56:08.047Z,51.66
2023-02-04T12:58:53.939Z,51.95
2023-02-04T13:01:39.576Z,51.88
2023-02-04T13:04:25.349Z,51.66
2023-02-04T13:07:13.318Z,51.75
2023-02-04T13:09:59.632Z,51.82
2023-02-04T13:12:45.746Z,52.05
2023-02-04T13:15:32.033Z,52.75
2023-02-04T13:18:18.691Z,52.68
2023-02-04T13:21:05.048Z,51.73
2023-02-04T13:23:50.940Z,51.70
2023-02-04T13:26:36.594Z,51.03
2023-02-04T13:29:22.445Z,50.73
2023-02-04T13:32:08.484Z,50.35
2023-02-04T13:34:54.388Z,50.62
2023-02-04T13:37:40.566Z,50.50
2023-02-04T13:40:26.624Z,50.23
2023-02-04T13:43:12.525Z,50.41
2023-02-04T13:45:59.010Z,50.00
2023-02-04T13:48:44.595Z,51.09
2023-02-04T13:51:31.508Z,51.13
2023-02-04T13:54:17.551Z,51.26
2023-02-04T13:57:03.301Z,51.23
2023-02-04T13:59:49.479Z,51.25
2023-02-04T14:02:35.325Z,51.29
2023-02-04T14:05:22.479Z,51.86
2023-02-04T14:08:09.353Z,51.99
2023-02-04T14:10:55.810Z,52.24
2023-02-04T14:13:41.761Z,52.20
2023-02-04T14:16:28.287Z,52.58
2023-02-04T14:19:15.184Z,52.57
2023-02-04T14:22:02.983Z,52.96
2023-02-04T14:24:50.371Z,53.15
2023-02-04T14:27:38.523Z,52.52
2023-02-04T14:30:26.503Z,52.67
2023-02-04T14:33:13.068Z,52.81
2023-02-04T14:35:58.936Z,52.43
2023-02-04T14:38:44.857Z,52.25
2023-02-04T14:41:31.332Z,52.34
2023-02-04T14:44:20.846Z,52.79
2023-02-04T14:47:06.707Z,52.33
2023-02-04T14:49:53.919Z,52.57
2023-02-04T14:52:40.039Z,52.26
2023-02-04T14:55:27.984Z,51.36
2023-02-04T14:58:13.878Z,51.75
2023-02-04T15:00:59.694Z,52.38
2023-02-04T15:03:46.134Z,52.50
2023-02-04T15:06:35.534Z,52.34
2023-02-04T15:09:21.510Z,51.69
2023-02-04T15:12:07.863Z,51.99
2023-02-04T15:14:54.496Z,51.78
2023-02-04T15:17:40.453Z,51.79
2023-02-04T15:20:26.438Z,51.52
2023-02-04T15:23:13.308Z,51.86
2023-02-04T15:26:06.382Z,51.32
2023-02-04T15:28:55.791Z,51.65
2023-02-04T15:31:41.991Z,51.55
2023-02-04T15:34:28.209Z,51.57
2023-02-04T15:37:14.263Z,52.28
2023-02-04T15:40:00.901Z,51.91
2023-02-04T15:42:47.678Z,51.59
2023-02-04T15:45:33.587Z,52.08
2023-02-04T15:48:21.110Z,51.64
2023-02-04T15:51:07.035Z,51.61
2023-02-04T15:53:53.040Z,52.11
2023-02-04T15:56:39.476Z,51.82
2023-02-04T15:59:25.272Z,52.07
2023-02-04T16:02:11.498Z,51.80
2023-02-04T16:04:58.576Z,52.19
2023-02-04T16:07:44.514Z,51.88
2023-02-04T16:10:30.905Z,52.57
2023-02-04T16:13:17.190Z,52.63
2023-02-04T16:16:03.275Z,52.53
2023-02-04T16:18:49.189Z,52.93
2023-02-04T16:21:34.951Z,52.73
2023-02-04T16:24:21.344Z,53.41
2023-02-04T16:27:07.583Z,53.23
2023-02-04T16:29:56.445Z,53.09
2023-02-04T16:32:43.770Z,53.09
2023-02-04T16:35:29.612Z,53.17
2023-02-04T16:38:18.560Z,53.33
2023-02-04T16:41:05.068Z,53.36
2023-02-04T16:43:51.298Z,53.43
2023-02-04T16:46:37.502Z,53.32
2023-02-04T16:49:23.398Z,52.84
2023-02-04T16:52:09.590Z,52.99
2023-02-04T16:54:55.368Z,53.14
2023-02-04T16:57:43.240Z,53.06
2023-02-04T17:00:29.297Z,53.74
2023-02-04T17:03:15.256Z,53.66
2023-02-04T17:06:01.502Z,53.71
2023-02-04T17:08:47.269Z,53.77
2023-02-04T17:11:33.342Z,54.54
2023-02-04T17:14:19.962Z,54.41
2023-02-04T17:17:05.615Z,54.29
2023-02-04T17:19:51.552Z,54.29
2023-02-04T17:22:38.459Z,54.91
2023-02-04T17:25:23.943Z,55.18
2023-02-04T17:28:09.684Z,55.51
2023-02-04T17:30:55.370Z,54.83
2023-02-04T17:33:41.935Z,54.81
2023-02-04T17:36:28.184Z,55.17
2023-02-04T17:39:14.307Z,55.42
2023-02-04T17:42:00.202Z,54.94
2023-02-04T17:44:46.078Z,55.05
2023-02-04T17:47:32.049Z,55.22
2023-02-04T17:50:18.582Z,54.90
2023-02-04T17:53:05.115Z,54.76
2023-02-04T17:55:51.335Z,54.35
2023-02-04T17:58:37.873Z,54.30
2023-02-04T18:01:25.341Z,53.93
2023-02-04T18:04:14.919Z,54.17
2023-02-04T18:07:01.160Z,53.62
2023-02-04T18:09:47.056Z,53.39
2023-02-04T18:12:35.149Z,53.92
2023-02-04T19:00:09.027Z,54.79
2023-02-04T19:03:00.596Z,55.09
2023-02-04T19:05:50.793Z,54.43
2023-02-04T19:08:44.100Z,54.49
2023-02-04T19:11:43.047Z,54.10
2023-02-04T19:14:39.366Z,54.05
2023-02-04T19:17:28.263Z,54.22
2023-02-04T19:20:23.764Z,53.70
2023-02-04T19:23:16.143Z,53.90
2023-02-04T19:26:02.073Z,53.74
2023-02-04T19:28:50.812Z,53.93
2023-02-04T19:31:37.589Z,54.22
2023-02-04T19:34:32.887Z,54.10
2023-02-04T19:37:23.672Z,54.21
2023-02-04T19:40:29.343Z,53.89
2023-02-04T19:43:23.710Z,53.42
2023-02-04T19:46:21.650Z,53.11
2023-02-04T19:49:14.740Z,53.31
2023-02-04T19:52:01.045Z,53.19
2023-02-04T19:54:47.119Z,53.21
2023-02-04T19:57:35.517Z,52.96
2023-02-04T20:00:38.204Z,52.50
2023-02-04T20:03:43.491Z,51.97
2023-02-04T20:06:30.747Z,52.68
2023-02-04T20:09:25.241Z,52.35
2023-02-04T20:12:18.542Z,51.85
2023-02-04T21:08:43.448Z,51.16
2023-02-04T21:11:29.476Z,51.97
2023-02-04T21:14:15.335Z,51.84
2023-02-04T21:17:01.976Z,51.78
2023-02-04T21:19:47.658Z,51.84
2023-02-04T21:22:33.537Z,51.85
2023-02-04T21:25:19.270Z,51.80
2023-02-04T21:28:06.317Z,51.62
2023-02-04T21:30:52.212Z,51.54
2023-02-04T21:33:37.891Z,51.54
2023-02-04T21:36:27.933Z,51.74
2023-02-04T21:39:13.995Z,51.49
2023-02-04T21:42:11.667Z,51.62
2023-02-04T21:45:01.445Z,51.42
2023-02-04T21:47:48.321Z,51.52
2023-02-04T21:50:34.477Z,51.41
2023-02-04T21:53:20.279Z,51.54
2023-02-04T21:56:07.866Z,51.51
2023-02-04T21:58:54.369Z,51.66
2023-02-04T22:01:40.619Z,51.58
2023-02-04T22:04:26.618Z,51.67
2023-02-04T22:07:12.398Z,51.63
2023-02-04T22:09:58.074Z,51.59
2023-02-04T22:12:43.867Z,51.56
2023-02-04T22:15:29.820Z,51.52
2023-02-04T22:18:15.569Z,51.71
2023-02-04T22:21:01.189Z,51.31
2023-02-04T22:23:46.941Z,51.52
2023-02-04T22:26:32.505Z,51.73
2023-02-04T22:29:24.921Z,51.42
2023-02-04T22:32:10.945Z,51.48
2023-02-04T22:34:57.007Z,51.22
2023-02-04T22:37:43.171Z,51.26
2023-02-04T22:40:29.325Z,51.29
2023-02-04T22:43:20.848Z,51.11
2023-02-04T22:46:07.309Z,51.02
2023-02-04T22:48:53.254Z,50.97
2023-02-04T22:51:39.316Z,50.88
2023-02-04T22:54:26.205Z,50.85
2023-02-04T22:57:13.201Z,50.08
2023-02-04T22:59:59.311Z,50.56
2023-02-04T23:02:45.193Z,50.52
2023-02-04T23:05:30.970Z,50.52
2023-02-04T23:08:17.992Z,49.79
2023-02-04T23:11:04.224Z,49.45
2023-02-04T23:13:50.425Z,49.71
2023-02-04T23:16:36.293Z,49.17
2023-02-04T23:19:21.941Z,49.14
2023-02-04T23:22:09.920Z,49.50
2023-02-04T23:24:55.873Z,49.49
2023-02-04T23:27:41.605Z,49.35
2023-02-04T23:30:28.068Z,49.47
2023-02-04T23:33:15.263Z,48.60
2023-02-04T23:36:01.715Z,48.96
2023-02-04T23:38:47.809Z,49.13
2023-02-04T23:41:33.984Z,49.25
2023-02-04T23:44:20.071Z,49.08
2023-02-04T23:47:05.743Z,48.97
2023-02-04T23:49:51.638Z,49.07
2023-02-04T23:52:37.299Z,48.81
2023-02-04T23:55:23.038Z,49.09
2023-02-04T23:58:08.723Z,49.01
